Asteria — WDE5489 — position and weather

sailwx.info

Track history (hours):
 
Tides and Currents Weather Stations Pressure Air Temp Water Temp Dewpoint Dewpoint Depression Visibility Wind Speed Wind Dir Waves Ship Positions

Asteria

More information available from US FCC via Universal Licensing System and Coast Guard Vessel Documentation Center.

Last reported at 2014-Jul-25 13:05 UTC. Time now 2014-Jul-31 07:29 UTC.
Position N 42°20' W 071°00'.

Length 33 m; draft 2 m.

Type: High speed craft. MMSI: 367367470.

Date/timePositionNaut miles runAvg speedWind from/ knotsBaromVisibWave heightAir tempDewpointWater temp
2014-Jul-25 13:05N 42°20' W 071°00'5 6.7
2014-Jul-25 12:20N 42°16' W 070°56'  
2014-Jul-22 11:29N 42°18' W 070°58'3 0.3
2014-Jul-22 00:04N 42°15' W 070°55'8 8.8
2014-Jul-21 23:08N 42°21' W 071°03'814.5
2014-Jul-21 22:33N 42°15' W 070°55'2 1.7
2014-Jul-21 21:17N 42°17' W 070°57'3 0.8
2014-Jul-21 17:08N 42°20' W 070°57'2228.0
2014-Jul-21 16:20N 42°24' W 070°28'2412.1
2014-Jul-21 14:22N 42°20' W 070°60'  
2014-Jul-18 12:20N 42°16' W 070°56'7 0.3
2014-Jul-17 13:09N 42°21' W 071°02'812.9
2014-Jul-17 12:33N 42°15' W 070°55'6 5.8
2014-Jul-17 11:34N 42°20' W 070°60'0 0.0
2014-Jul-16 11:32N 42°20' W 070°60'2 0.1
2014-Jul-15 13:08N 42°21' W 071°02'  
Track history (hours):
 
Tides and Currents Weather Stations Pressure Air Temp Water Temp Dewpoint Dewpoint Depression Visibility Wind Speed Wind Dir Waves Ship Positions

Asteria

More information available from US FCC via Universal Licensing System and Coast Guard Vessel Documentation Center.

Last reported at 2014-Jul-25 13:05 UTC. Time now 2014-Jul-31 07:29 UTC.
Position N 42°20' W 071°00'.

Length 33 m; draft 2 m.

Type: High speed craft. MMSI: 367367470.

Date/timePositionNaut miles runAvg speedWind from/ knotsBaromVisibWave heightAir tempDewpointWater temp
2014-Jul-25 13:05N 42°20' W 071°00'5 6.7
2014-Jul-25 12:20N 42°16' W 070°56'  
2014-Jul-22 11:29N 42°18' W 070°58'3 0.3
2014-Jul-22 00:04N 42°15' W 070°55'8 8.8
2014-Jul-21 23:08N 42°21' W 071°03'814.5
2014-Jul-21 22:33N 42°15' W 070°55'2 1.7
2014-Jul-21 21:17N 42°17' W 070°57'3 0.8
2014-Jul-21 17:08N 42°20' W 070°57'2228.0
2014-Jul-21 16:20N 42°24' W 070°28'2412.1
2014-Jul-21 14:22N 42°20' W 070°60'  
2014-Jul-18 12:20N 42°16' W 070°56'7 0.3
2014-Jul-17 13:09N 42°21' W 071°02'812.9
2014-Jul-17 12:33N 42°15' W 070°55'6 5.8
2014-Jul-17 11:34N 42°20' W 070°60'0 0.0
2014-Jul-16 11:32N 42°20' W 070°60'2 0.1
2014-Jul-15 13:08N 42°21' W 071°02'  

Dump ship's entire track history